Time,TemperatureF,DewpointF,PressureIn,WindDirection,WindDirectionDegrees,WindSpeedMPH,WindSpeedGustMPH,Humidity,HourlyPrecipIn,Conditions,Clouds,dailyrainin,SoftwareType,DateUTC
2013-03-30 00:00:00,41.9,31.1,30.11,West,271,0.0,222.7,65,0.00,,,0.00,VWS V14.01,2013-03-30 04:00:00,
2013-03-30 00:01:00,40.8,31.1,30.10,West,267,0.0,222.7,68,0.00,,,0.00,VWS V14.01,2013-03-30 04:01:00,
2013-03-30 00:02:00,41.9,31.2,30.11,West,271,0.0,222.7,65,0.00,,,0.00,VWS V14.01,2013-03-30 04:02:00,
2013-03-30 00:03:00,41.9,31.2,30.11,NW,315,5.5,222.7,66,0.00,,,0.00,VWS V14.01,2013-03-30 04:03:00,
2013-03-30 00:04:00,40.7,30.9,30.10,West,267,0.0,222.7,68,0.00,,,0.00,VWS V14.01,2013-03-30 04:04:00,
2013-03-30 00:05:00,40.7,31.0,30.10,West,267,0.0,222.7,68,0.00,,,0.00,VWS V14.01,2013-03-30 04:05:00,
2013-03-30 00:06:00,41.9,31.2,30.11,NW,304,0.0,222.7,66,0.00,,,0.00,VWS V14.01,2013-03-30 04:06:00,
2013-03-30 00:07:00,40.6,31.1,30.10,West,267,0.0,222.7,69,0.00,,,0.00,VWS V14.01,2013-03-30 04:07:00,
2013-03-30 00:08:00,40.6,31.2,30.10,West,267,0.0,222.7,69,0.00,,,0.00,VWS V14.01,2013-03-30 04:08:00,
2013-03-30 00:09:00,40.5,31.0,30.10,West,267,0.0,222.7,68,0.00,,,0.00,VWS V14.01,2013-03-30 04:09:00,
2013-03-30 00:10:00,40.5,31.2,30.10,West,267,0.0,222.7,69,0.00,,,0.00,VWS V14.01,2013-03-30 04:10:00,
2013-03-30 00:11:00,40.4,31.2,30.10,West,267,0.0,222.7,69,0.00,,,0.00,VWS V14.01,2013-03-30 04:11:00,
2013-03-30 00:12:00,41.9,31.2,30.10,NW,305,5.7,222.7,66,0.00,,,0.00,VWS V14.01,2013-03-30 04:12:00,
2013-03-30 00:13:00,40.3,31.2,30.10,West,267,0.0,222.7,70,0.00,,,0.00,VWS V14.01,2013-03-30 04:13:00,
2013-03-30 00:14:00,40.2,31.4,30.10,West,267,0.0,222.7,70,0.00,,,0.00,VWS V14.01,2013-03-30 04:14:00,
2013-03-30 00:15:00,40.2,31.5,30.10,West,267,0.0,222.7,71,0.00,,,0.00,VWS V14.01,2013-03-30 04:15:00,
2013-03-30 00:16:00,40.1,31.4,30.10,West,267,0.0,222.7,71,0.00,,,0.00,VWS V14.01,2013-03-30 04:16:00,
2013-03-30 00:17:00,41.8,31.4,30.10,WNW,287,0.0,222.7,66,0.00,,,0.00,VWS V14.01,2013-03-30 04:17:00,
2013-03-30 00:18:00,40.1,31.6,30.10,West,267,0.0,222.7,71,0.00,,,0.00,VWS V14.01,2013-03-30 04:18:00,
2013-03-30 00:19:00,40.0,31.5,30.10,West,267,0.0,222.7,71,0.00,,,0.00,VWS V14.01,2013-03-30 04:19:00,
2013-03-30 00:20:00,40.0,31.5,30.10,West,267,0.0,222.7,71,0.00,,,0.00,VWS V14.01,2013-03-30 04:20:00,
2013-03-30 00:21:00,40.0,31.6,30.10,West,267,0.0,222.7,72,0.00,,,0.00,VWS V14.01,2013-03-30 04:21:00,
2013-03-30 00:22:00,41.6,31.0,30.10,WNW,287,0.0,222.7,66,0.00,,,0.00,VWS V14.01,2013-03-30 04:22:00,
2013-03-30 00:23:00,40.0,31.7,30.10,West,267,0.0,222.7,72,0.00,,,0.00,VWS V14.01,2013-03-30 04:23:00,
2013-03-30 00:24:00,39.9,31.6,30.10,West,267,0.0,222.7,72,0.00,,,0.00,VWS V14.01,2013-03-30 04:24:00,
2013-03-30 00:25:00,39.8,31.5,30.10,West,267,0.0,222.7,72,0.00,,,0.00,VWS V14.01,2013-03-30 04:25:00,
2013-03-30 00:26:00,39.8,31.6,30.10,West,267,0.0,222.7,72,0.00,,,0.00,VWS V14.01,2013-03-30 04:26:00,
2013-03-30 00:27:00,39.8,31.6,30.10,West,267,0.0,222.7,72,0.00,,,0.00,VWS V14.01,2013-03-30 04:27:00,
2013-03-30 00:28:00,41.6,31.3,30.10,WNW,287,0.0,222.7,67,0.00,,,0.00,VWS V14.01,2013-03-30 04:28:00,
2013-03-30 00:29:00,39.8,31.7,30.10,West,267,0.0,222.7,72,0.00,,,0.00,VWS V14.01,2013-03-30 04:29:00,
2013-03-30 00:30:00,39.7,31.6,30.10,West,267,0.0,222.7,72,0.00,,,0.00,VWS V14.01,2013-03-30 04:30:00,
2013-03-30 00:31:00,39.6,31.6,30.10,West,267,0.0,222.7,73,0.00,,,0.00,VWS V14.01,2013-03-30 04:31:00,
2013-03-30 00:32:00,39.6,31.6,30.10,West,267,0.0,222.7,73,0.00,,,0.00,VWS V14.01,2013-03-30 04:32:00,
2013-03-30 00:33:00,41.4,31.0,30.10,WNW,287,0.0,222.7,66,0.00,,,0.00,VWS V14.01,2013-03-30 04:33:00,
2013-03-30 00:34:00,39.6,31.5,30.10,West,267,0.0,222.7,73,0.00,,,0.00,VWS V14.01,2013-03-30 04:34:00,
2013-03-30 00:35:00,39.5,31.5,30.10,West,267,0.0,222.7,73,0.00,,,0.00,VWS V14.01,2013-03-30 04:35:00,
2013-03-30 00:36:00,39.5,31.5,30.10,West,267,0.0,222.7,73,0.00,,,0.00,VWS V14.01,2013-03-30 04:36:00,
2013-03-30 00:37:00,39.5,31.5,30.10,West,267,0.0,222.7,73,0.00,,,0.00,VWS V14.01,2013-03-30 04:37:00,
2013-03-30 00:38:00,39.5,31.6,30.10,West,267,0.0,222.7,73,0.00,,,0.00,VWS V14.01,2013-03-30 04:38:00,
2013-03-30 00:39:00,41.3,30.9,30.10,WNW,287,0.0,222.7,66,0.00,,,0.00,VWS V14.01,2013-03-30 04:39:00,
2013-03-30 00:40:00,39.4,31.5,30.10,West,267,0.0,222.7,73,0.00,,,0.00,VWS V14.01,2013-03-30 04:40:00,
2013-03-30 00:41:00,39.4,31.7,30.10,West,267,0.0,222.7,74,0.00,,,0.00,VWS V14.01,2013-03-30 04:41:00,
2013-03-30 00:42:00,39.4,31.7,30.10,West,267,0.0,222.7,74,0.00,,,0.00,VWS V14.01,2013-03-30 04:42:00,
2013-03-30 00:43:00,39.4,31.8,30.10,West,267,0.0,222.7,74,0.00,,,0.00,VWS V14.01,2013-03-30 04:43:00,
2013-03-30 00:44:00,41.2,30.8,30.10,WNW,287,0.0,222.7,66,0.00,,,0.00,VWS V14.01,2013-03-30 04:44:00,
2013-03-30 00:45:00,39.3,31.6,30.10,West,267,0.0,222.7,74,0.00,,,0.00,VWS V14.01,2013-03-30 04:45:00,
2013-03-30 00:46:00,39.3,31.8,30.10,West,267,0.0,222.7,74,0.00,,,0.00,VWS V14.01,2013-03-30 04:46:00,
2013-03-30 00:47:00,39.2,31.6,30.10,West,267,0.0,222.7,74,0.00,,,0.00,VWS V14.01,2013-03-30 04:47:00,
2013-03-30 00:48:00,39.2,31.9,30.10,West,267,0.0,222.7,75,0.00,,,0.00,VWS V14.01,2013-03-30 04:48:00,
2013-03-30 00:49:00,39.2,32.0,30.10,West,267,0.0,222.7,75,0.00,,,0.00,VWS V14.01,2013-03-30 04:49:00,
2013-03-30 00:50:00,41.0,30.6,30.10,West,267,0.0,222.7,66,0.00,,,0.00,VWS V14.01,2013-03-30 04:50:00,
2013-03-30 00:51:00,39.1,32.1,30.10,West,267,0.0,222.7,76,0.00,,,0.00,VWS V14.01,2013-03-30 04:51:00,
2013-03-30 00:52:00,39.1,32.0,30.10,West,267,0.0,222.7,75,0.00,,,0.00,VWS V14.01,2013-03-30 04:52:00,
2013-03-30 00:53:00,39.1,32.1,30.10,West,267,0.0,222.7,76,0.00,,,0.00,VWS V14.01,2013-03-30 04:53:00,
2013-03-30 00:54:00,39.0,32.2,30.10,West,267,0.0,222.7,76,0.00,,,0.00,VWS V14.01,2013-03-30 04:54:00,
2013-03-30 00:55:00,40.9,30.6,30.10,West,267,0.0,222.7,67,0.00,,,0.00,VWS V14.01,2013-03-30 04:55:00,
2013-03-30 00:56:00,38.9,32.0,30.10,West,267,0.0,222.7,76,0.00,,,0.00,VWS V14.01,2013-03-30 04:56:00,
2013-03-30 00:57:00,38.9,32.0,30.10,West,267,0.0,222.7,76,0.00,,,0.00,VWS V14.01,2013-03-30 04:57:00,
2013-03-30 00:58:00,38.8,32.0,30.10,West,267,0.0,222.7,76,0.00,,,0.00,VWS V14.01,2013-03-30 04:58:00,
2013-03-30 00:59:00,38.8,32.0,30.10,West,267,0.0,222.7,76,0.00,,,0.00,VWS V14.01,2013-03-30 04:59:00,
2013-03-30 01:00:00,38.7,31.9,30.10,West,267,0.0,222.7,76,0.00,,,0.00,VWS V14.01,2013-03-30 05:00:00,
2013-03-30 01:01:00,38.7,31.9,30.10,West,267,0.0,222.7,76,0.00,,,0.00,VWS V14.01,2013-03-30 05:01:00,
2013-03-30 01:02:00,38.6,31.8,30.10,West,267,0.0,222.7,76,0.00,,,0.00,VWS V14.01,2013-03-30 05:02:00,
2013-03-30 01:03:00,38.5,31.7,30.10,West,267,0.0,222.7,76,0.00,,,0.00,VWS V14.01,2013-03-30 05:03:00,
2013-03-30 01:04:00,38.5,31.8,30.10,West,267,0.0,222.7,76,0.00,,,0.00,VWS V14.01,2013-03-30 05:04:00,
2013-03-30 01:05:00,38.4,31.7,30.10,West,267,0.0,222.7,77,0.00,,,0.00,VWS V14.01,2013-03-30 05:05:00,
2013-03-30 01:06:00,38.4,32.0,30.10,West,267,0.0,222.7,77,0.00,,,0.00,VWS V14.01,2013-03-30 05:06:00,
2013-03-30 01:08:00,38.3,32.0,30.10,West,267,0.0,222.7,78,0.00,,,0.00,VWS V14.01,2013-03-30 05:08:00,
2013-03-30 01:11:00,38.2,32.0,30.10,West,267,0.0,222.7,78,0.00,,,0.00,VWS V14.01,2013-03-30 05:11:00,
2013-03-30 01:13:00,38.2,32.0,30.10,West,267,0.0,222.7,78,0.00,,,0.00,VWS V14.01,2013-03-30 05:13:00,
2013-03-30 01:18:00,38.1,32.0,30.10,West,267,0.0,222.7,79,0.00,,,0.00,VWS V14.01,2013-03-30 05:18:00,
2013-03-30 01:20:00,38.1,32.1,30.10,West,267,0.0,222.7,79,0.00,,,0.00,VWS V14.01,2013-03-30 05:20:00,
2013-03-30 01:21:00,38.1,32.2,30.10,West,267,0.0,222.7,79,0.00,,,0.00,VWS V14.01,2013-03-30 05:21:00,
2013-03-30 01:22:00,38.1,32.2,30.10,West,267,0.0,222.7,79,0.00,,,0.00,VWS V14.01,2013-03-30 05:22:00,
2013-03-30 01:23:00,38.1,32.2,30.11,West,267,0.0,222.7,79,0.00,,,0.00,VWS V14.01,2013-03-30 05:23:00,
2013-03-30 01:24:00,38.1,32.2,30.10,West,267,0.0,222.7,79,0.00,,,0.00,VWS V14.01,2013-03-30 05:24:00,
2013-03-30 01:26:00,38.1,32.1,30.10,West,267,0.0,222.7,79,0.00,,,0.00,VWS V14.01,2013-03-30 05:26:00,
2013-03-30 01:28:00,38.2,32.2,30.11,West,267,0.0,222.7,79,0.00,,,0.00,VWS V14.01,2013-03-30 05:28:00,
2013-03-30 01:29:00,38.2,32.2,30.11,West,267,0.0,222.7,79,0.00,,,0.00,VWS V14.01,2013-03-30 05:29:00,
2013-03-30 01:30:00,38.2,32.3,30.11,West,267,0.0,222.7,79,0.00,,,0.00,VWS V14.01,2013-03-30 05:30:00,
2013-03-30 01:33:00,38.2,32.2,30.11,West,267,0.0,222.7,79,0.00,,,0.00,VWS V14.01,2013-03-30 05:33:00,
2013-03-30 01:34:00,38.2,32.4,30.11,West,267,0.0,222.7,79,0.00,,,0.00,VWS V14.01,2013-03-30 05:34:00,
2013-03-30 01:38:00,38.3,32.6,30.11,West,267,0.0,222.7,80,0.00,,,0.00,VWS V14.01,2013-03-30 05:38:00,
2013-03-30 02:06:00,38.3,31.9,30.10,West,267,0.0,222.7,78,0.00,,,0.00,VWS V14.01,2013-03-30 06:06:00,
2013-03-30 02:12:00,38.2,32.1,30.10,West,267,0.0,222.7,78,0.00,,,0.00,VWS V14.01,2013-03-30 06:12:00,
2013-03-30 02:17:00,38.1,32.0,30.10,West,267,0.0,222.7,79,0.00,,,0.00,VWS V14.01,2013-03-30 06:17:00,
2013-03-30 02:23:00,38.2,32.3,30.11,West,267,0.0,222.7,79,0.00,,,0.00,VWS V14.01,2013-03-30 06:23:00,
2013-03-30 02:30:00,38.2,32.4,30.11,West,267,0.0,222.7,79,0.00,,,0.00,VWS V14.01,2013-03-30 06:30:00,
2013-03-30 02:35:00,38.3,32.5,30.11,West,267,0.0,222.7,79,0.00,,,0.00,VWS V14.01,2013-03-30 06:35:00,
2013-03-30 02:40:00,38.3,32.5,30.11,West,267,0.0,222.7,79,0.00,,,0.00,VWS V14.01,2013-03-30 06:40:00,
2013-03-30 02:45:00,38.5,32.4,30.11,West,267,0.0,222.7,78,0.00,,,0.00,VWS V14.01,2013-03-30 06:45:00,
2013-03-30 02:51:00,38.7,32.4,30.11,West,267,0.0,222.7,78,0.00,,,0.00,VWS V14.01,2013-03-30 06:51:00,
2013-03-30 02:56:00,38.8,32.3,30.11,West,267,0.0,222.7,77,0.00,,,0.00,VWS V14.01,2013-03-30 06:56:00,
2013-03-30 03:01:00,38.9,32.2,30.11,West,267,0.0,222.7,77,0.00,,,0.00,VWS V14.01,2013-03-30 07:01:00,
2013-03-30 03:07:00,38.9,32.1,30.11,West,267,0.0,222.7,76,0.00,,,0.00,VWS V14.01,2013-03-30 07:07:00,
2013-03-30 03:12:00,38.9,32.1,30.11,West,267,0.0,222.7,76,0.00,,,0.00,VWS V14.01,2013-03-30 07:12:00,
2013-03-30 03:17:00,38.8,32.0,30.11,West,267,0.0,222.7,76,0.00,,,0.00,VWS V14.01,2013-03-30 07:17:00,
2013-03-30 03:22:00,38.7,31.9,30.10,West,267,0.0,222.7,76,0.00,,,0.00,VWS V14.01,2013-03-30 07:22:00,
2013-03-30 03:28:00,38.5,32.0,30.11,West,267,0.0,222.7,77,0.00,,,0.00,VWS V14.01,2013-03-30 07:28:00,
2013-03-30 03:33:00,38.1,32.0,30.11,West,267,0.0,222.7,79,0.00,,,0.00,VWS V14.01,2013-03-30 07:33:00,
2013-03-30 03:38:00,37.7,32.4,30.11,West,267,0.0,222.7,81,0.00,,,0.00,VWS V14.01,2013-03-30 07:38:00,
2013-03-30 03:43:00,37.3,32.3,30.10,West,267,0.0,222.7,82,0.00,,,0.00,VWS V14.01,2013-03-30 07:43:00,
2013-03-30 03:49:00,37.0,32.4,30.10,West,267,0.0,222.7,83,0.00,,,0.00,VWS V14.01,2013-03-30 07:49:00,
2013-03-30 03:54:00,36.7,32.4,30.10,West,267,0.0,222.7,84,0.00,,,0.00,VWS V14.01,2013-03-30 07:54:00,
2013-03-30 03:59:00,36.3,31.9,30.10,West,267,0.0,222.7,84,0.00,,,0.00,VWS V14.01,2013-03-30 07:59:00,
2013-03-30 04:04:00,36.1,32.0,30.10,West,267,0.0,222.7,85,0.00,,,0.00,VWS V14.01,2013-03-30 08:04:00,
2013-03-30 04:10:00,35.8,31.9,30.10,West,267,0.0,222.7,86,0.00,,,0.00,VWS V14.01,2013-03-30 08:10:00,
2013-03-30 04:15:00,35.9,32.1,30.10,West,267,0.0,222.7,86,0.00,,,0.00,VWS V14.01,2013-03-30 08:15:00,
2013-03-30 04:20:00,36.1,32.3,30.10,West,267,0.0,222.7,86,0.00,,,0.00,VWS V14.01,2013-03-30 08:20:00,
2013-03-30 04:26:00,36.3,32.3,30.10,West,267,0.0,222.7,85,0.00,,,0.00,VWS V14.01,2013-03-30 08:26:00,
2013-03-30 04:31:00,36.4,32.4,30.10,West,267,0.0,222.7,85,0.00,,,0.00,VWS V14.01,2013-03-30 08:31:00,
2013-03-30 04:36:00,36.4,32.4,30.10,West,267,0.0,222.7,85,0.00,,,0.00,VWS V14.01,2013-03-30 08:36:00,
2013-03-30 04:37:00,35.3,32.0,30.10,West,267,0.0,222.7,88,0.00,,,0.00,VWS V14.01,2013-03-30 08:37:00,
2013-03-30 04:42:00,36.4,32.2,30.10,West,267,0.0,222.7,84,0.00,,,0.00,VWS V14.01,2013-03-30 08:42:00,
2013-03-30 04:46:00,35.1,32.0,30.11,West,267,0.0,222.7,88,0.00,,,0.00,VWS V14.01,2013-03-30 08:46:00,
2013-03-30 04:47:00,36.2,32.1,30.10,West,267,0.0,222.7,85,0.00,,,0.00,VWS V14.01,2013-03-30 08:47:00,
2013-03-30 04:52:00,36.0,32.0,30.10,West,267,0.0,222.7,85,0.00,,,0.00,VWS V14.01,2013-03-30 08:52:00,
2013-03-30 04:56:00,35.3,32.1,30.11,West,267,0.0,222.7,88,0.00,,,0.00,VWS V14.01,2013-03-30 08:56:00,
2013-03-30 04:58:00,35.9,32.1,30.10,West,267,0.0,222.7,86,0.00,,,0.00,VWS V14.01,2013-03-30 08:58:00,
2013-03-30 05:00:00,35.3,32.3,30.12,West,267,0.0,222.7,89,0.00,,,0.00,VWS V14.01,2013-03-30 09:00:00,
2013-03-30 05:03:00,35.8,31.9,30.10,West,267,0.0,222.7,86,0.00,,,0.00,VWS V14.01,2013-03-30 09:03:00,
2013-03-30 05:07:00,35.4,32.5,30.12,West,267,0.0,222.7,89,0.00,,,0.00,VWS V14.01,2013-03-30 09:07:00,
2013-03-30 05:08:00,35.7,31.9,30.10,West,267,0.0,222.7,86,0.00,,,0.00,VWS V14.01,2013-03-30 09:08:00,
2013-03-30 05:12:00,35.5,32.5,30.12,West,267,0.0,222.7,89,0.00,,,0.00,VWS V14.01,2013-03-30 09:12:00,
2013-03-30 05:13:00,35.7,32.2,30.10,West,267,0.0,222.7,87,0.00,,,0.00,VWS V14.01,2013-03-30 09:13:00,
2013-03-30 05:15:00,35.5,32.4,30.12,West,267,0.0,222.7,88,0.00,,,0.00,VWS V14.01,2013-03-30 09:15:00,
2013-03-30 05:19:00,35.6,32.0,30.10,West,267,0.0,222.7,87,0.00,,,0.00,VWS V14.01,2013-03-30 09:19:00,
2013-03-30 05:22:00,35.6,32.5,30.12,West,267,0.0,222.7,88,0.00,,,0.00,VWS V14.01,2013-03-30 09:22:00,
2013-03-30 05:24:00,35.3,32.0,30.10,West,267,0.0,222.7,88,0.00,,,0.00,VWS V14.01,2013-03-30 09:24:00,
2013-03-30 05:25:00,35.6,32.5,30.12,West,267,0.0,222.7,88,0.00,,,0.00,VWS V14.01,2013-03-30 09:25:00,
2013-03-30 05:28:00,35.6,32.4,30.12,West,267,0.0,222.7,88,0.00,,,0.00,VWS V14.01,2013-03-30 09:28:00,
2013-03-30 05:29:00,35.1,32.1,30.10,West,267,0.0,222.7,89,0.00,,,0.00,VWS V14.01,2013-03-30 09:29:00,
2013-03-30 05:34:00,35.3,32.0,30.10,West,267,0.0,222.7,88,0.00,,,0.00,VWS V14.01,2013-03-30 09:34:00,
2013-03-30 05:39:00,35.3,32.1,30.11,West,267,0.0,222.7,88,0.00,,,0.00,VWS V14.01,2013-03-30 09:39:00,
2013-03-30 05:45:00,35.5,32.2,30.12,West,267,0.0,222.7,88,0.00,,,0.00,VWS V14.01,2013-03-30 09:45:00,
2013-03-30 05:46:00,35.2,32.0,30.11,West,267,0.0,222.7,88,0.00,,,0.00,VWS V14.01,2013-03-30 09:46:00,
2013-03-30 05:47:00,35.4,32.3,30.12,West,267,0.0,222.7,88,0.00,,,0.00,VWS V14.01,2013-03-30 09:47:00,
2013-03-30 05:50:00,35.2,32.3,30.12,West,267,0.0,222.7,89,0.00,,,0.00,VWS V14.01,2013-03-30 09:50:00,
2013-03-30 05:51:00,35.2,32.0,30.11,West,267,0.0,222.7,88,0.00,,,0.00,VWS V14.01,2013-03-30 09:51:00,
2013-03-30 05:55:00,35.0,32.2,30.12,West,267,0.0,222.7,89,0.00,,,0.00,VWS V14.01,2013-03-30 09:55:00,
2013-03-30 05:56:00,35.0,32.2,30.12,West,267,0.0,222.7,89,0.00,,,0.00,VWS V14.01,2013-03-30 09:56:00,
2013-03-30 05:57:00,35.2,32.2,30.12,West,267,0.0,222.7,89,0.00,,,0.00,VWS V14.01,2013-03-30 09:57:00,
2013-03-30 06:00:00,34.8,32.1,30.13,West,267,0.0,222.7,90,0.00,,,0.00,VWS V14.01,2013-03-30 10:00:00,
2013-03-30 06:03:00,35.4,32.4,30.12,West,267,0.0,222.7,89,0.00,,,0.00,VWS V14.01,2013-03-30 10:03:00,
2013-03-30 06:08:00,35.5,32.5,30.12,West,267,0.0,222.7,89,0.00,,,0.00,VWS V14.01,2013-03-30 10:08:00,
2013-03-30 06:14:00,35.6,32.6,30.12,West,267,0.0,222.7,89,0.00,,,0.00,VWS V14.01,2013-03-30 10:14:00,
2013-03-30 06:20:00,35.6,32.5,30.12,West,267,0.0,222.7,88,0.00,,,0.00,VWS V14.01,2013-03-30 10:20:00,
2013-03-30 06:25:00,35.6,32.4,30.12,West,267,0.0,222.7,88,0.00,,,0.00,VWS V14.01,2013-03-30 10:25:00,
2013-03-30 06:30:00,35.6,32.3,30.12,West,267,0.0,222.7,88,0.00,,,0.00,VWS V14.01,2013-03-30 10:30:00,
2013-03-30 06:36:00,35.6,32.2,30.12,West,267,0.0,222.7,87,0.00,,,0.00,VWS V14.01,2013-03-30 10:36:00,
2013-03-30 06:44:00,35.5,32.3,30.12,West,267,0.0,222.7,88,0.00,,,0.00,VWS V14.01,2013-03-30 10:44:00,
2013-03-30 06:50:00,35.1,32.2,30.12,West,267,0.0,222.7,89,0.00,,,0.00,VWS V14.01,2013-03-30 10:50:00,
2013-03-30 06:55:00,34.9,32.0,30.13,West,267,0.0,222.7,89,0.00,,,0.00,VWS V14.01,2013-03-30 10:55:00,
2013-03-30 07:00:00,34.8,32.2,30.13,West,267,0.0,222.7,90,0.00,,,0.00,VWS V14.01,2013-03-30 11:00:00,
2013-03-30 07:05:00,34.6,32.1,30.13,West,267,0.0,222.7,90,0.00,,,0.00,VWS V14.01,2013-03-30 11:05:00,
2013-03-30 07:11:00,34.3,32.2,30.13,West,267,0.0,222.7,92,0.00,,,0.00,VWS V14.01,2013-03-30 11:11:00,
2013-03-30 07:16:00,34.2,32.1,30.13,West,267,0.0,222.7,92,0.00,,,0.00,VWS V14.01,2013-03-30 11:16:00,
2013-03-30 07:21:00,34.3,32.2,30.13,West,267,0.0,222.7,92,0.00,,,0.00,VWS V14.01,2013-03-30 11:21:00,
2013-03-30 07:26:00,34.6,32.3,30.13,West,267,0.0,222.7,91,0.00,,,0.00,VWS V14.01,2013-03-30 11:26:00,
2013-03-30 07:32:00,34.8,32.4,30.13,West,267,0.0,222.7,91,0.00,,,0.00,VWS V14.01,2013-03-30 11:32:00,
2013-03-30 07:37:00,35.3,32.6,30.13,West,267,0.0,222.7,90,0.00,,,0.00,VWS V14.01,2013-03-30 11:37:00,
2013-03-30 07:42:00,35.9,33.0,30.14,West,267,0.0,222.7,89,0.00,,,0.00,VWS V14.01,2013-03-30 11:42:00,
2013-03-30 07:47:00,36.6,33.1,30.14,West,267,0.0,222.7,87,0.00,,,0.00,VWS V14.01,2013-03-30 11:47:00,
2013-03-30 07:53:00,37.2,33.1,30.14,West,267,0.0,222.7,85,0.00,,,0.00,VWS V14.01,2013-03-30 11:53:00,
2013-03-30 07:58:00,37.9,33.2,30.14,West,267,0.0,222.7,83,0.00,,,0.00,VWS V14.01,2013-03-30 11:58:00,
2013-03-30 08:03:00,38.5,33.3,30.14,West,267,0.0,222.7,81,0.00,,,0.00,VWS V14.01,2013-03-30 12:03:00,
2013-03-30 08:08:00,38.9,33.0,30.14,West,267,0.0,222.7,79,0.00,,,0.00,VWS V14.01,2013-03-30 12:08:00,
2013-03-30 08:14:00,39.5,33.2,30.14,West,267,0.0,222.7,78,0.00,,,0.00,VWS V14.01,2013-03-30 12:14:00,
2013-03-30 08:19:00,40.0,33.2,30.14,NNW,330,0.0,222.7,76,0.00,,,0.00,VWS V14.01,2013-03-30 12:19:00,
2013-03-30 08:24:00,40.6,32.9,30.14,North,359,0.0,222.7,74,0.00,,,0.00,VWS V14.01,2013-03-30 12:24:00,
2013-03-30 08:29:00,41.0,33.0,30.14,NNW,336,0.0,222.7,73,0.00,,,0.00,VWS V14.01,2013-03-30 12:29:00,
2013-03-30 08:35:00,41.6,33.2,30.14,NNW,336,0.0,222.7,72,0.00,,,0.00,VWS V14.01,2013-03-30 12:35:00,
2013-03-30 08:40:00,42.0,32.8,30.14,NNW,336,0.0,222.7,70,0.00,,,0.00,VWS V14.01,2013-03-30 12:40:00,
2013-03-30 08:45:00,42.3,32.7,30.14,NNW,336,0.0,222.7,69,0.00,,,0.00,VWS V14.01,2013-03-30 12:45:00,
2013-03-30 08:51:00,42.6,32.5,30.14,North,359,0.0,222.7,67,0.00,,,0.00,VWS V14.01,2013-03-30 12:51:00,
2013-03-30 08:56:00,42.9,32.5,30.14,North,6,0.0,222.7,66,0.00,,,0.00,VWS V14.01,2013-03-30 12:56:00,
2013-03-30 09:01:00,43.3,32.6,30.15,NNW,332,0.0,222.7,66,0.00,,,0.00,VWS V14.01,2013-03-30 13:01:00,
2013-03-30 09:06:00,43.6,32.4,30.14,North,359,0.0,222.7,64,0.00,,,0.00,VWS V14.01,2013-03-30 13:06:00,
2013-03-30 09:12:00,43.7,32.0,30.14,NNW,347,0.0,222.7,63,0.00,,,0.00,VWS V14.01,2013-03-30 13:12:00,
2013-03-30 09:17:00,44.1,32.5,30.14,North,359,0.0,222.7,64,0.00,,,0.00,VWS V14.01,2013-03-30 13:17:00,
2013-03-30 09:22:00,44.3,32.2,30.14,NW,304,0.0,222.7,62,0.00,,,0.00,VWS V14.01,2013-03-30 13:22:00,
2013-03-30 09:27:00,44.8,32.4,30.15,NW,316,0.0,222.7,62,0.00,,,0.00,VWS V14.01,2013-03-30 13:27:00,
2013-03-30 09:33:00,45.1,32.0,30.14,NW,326,0.0,222.7,60,0.00,,,0.00,VWS V14.01,2013-03-30 13:33:00,
2013-03-30 09:38:00,45.4,31.6,30.15,NNW,342,0.0,222.7,58,0.00,,,0.00,VWS V14.01,2013-03-30 13:38:00,
2013-03-30 09:43:00,45.4,31.8,30.14,NNW,330,0.0,222.7,59,0.00,,,0.00,VWS V14.01,2013-03-30 13:43:00,
2013-03-30 09:49:00,45.9,32.0,30.14,NNW,329,0.0,222.7,58,0.00,,,0.00,VWS V14.01,2013-03-30 13:49:00,
2013-03-30 09:54:00,46.0,31.4,30.15,North,356,4.2,222.7,56,0.00,,,0.00,VWS V14.01,2013-03-30 13:54:00,
2013-03-30 09:59:00,46.4,30.8,30.15,NW,315,0.0,222.7,54,0.00,,,0.00,VWS V14.01,2013-03-30 13:59:00,
2013-03-30 10:05:00,46.9,31.1,30.15,NNW,330,0.0,222.7,54,0.00,,,0.00,VWS V14.01,2013-03-30 14:05:00,
2013-03-30 10:10:00,46.9,29.2,30.15,North,359,0.0,222.7,50,0.00,,,0.00,VWS V14.01,2013-03-30 14:10:00,
2013-03-30 10:15:00,47.1,30.2,30.15,NW,305,0.0,222.7,52,0.00,,,0.00,VWS V14.01,2013-03-30 14:15:00,
2013-03-30 10:20:00,47.0,29.4,30.15,North,6,7.9,222.7,50,0.00,,,0.00,VWS V14.01,2013-03-30 14:20:00,
2013-03-30 10:26:00,47.3,30.0,30.15,NNW,346,0.0,222.7,51,0.00,,,0.00,VWS V14.01,2013-03-30 14:26:00,
2013-03-30 10:31:00,47.5,29.0,30.15,NNW,335,4.8,222.7,48,0.00,,,0.00,VWS V14.01,2013-03-30 14:31:00,
2013-03-30 10:36:00,48.0,29.1,30.15,NW,308,0.0,222.7,48,0.00,,,0.00,VWS V14.01,2013-03-30 14:36:00,
2013-03-30 10:41:00,47.8,28.3,30.14,NW,314,0.0,222.7,46,0.00,,,0.00,VWS V14.01,2013-03-30 14:41:00,
2013-03-30 10:46:00,48.0,28.2,30.14,NNW,347,0.0,222.7,46,0.00,,,0.00,VWS V14.01,2013-03-30 14:46:00,
2013-03-30 10:52:00,48.7,28.9,30.14,NNW,347,0.0,222.7,46,0.00,,,0.00,VWS V14.01,2013-03-30 14:52:00,
2013-03-30 10:57:00,49.3,26.4,30.14,WNW,300,3.5,222.7,41,0.00,,,0.00,VWS V14.01,2013-03-30 14:57:00,
2013-03-30 11:02:00,49.1,25.7,30.14,North,359,0.0,222.7,40,0.00,,,0.00,VWS V14.01,2013-03-30 15:02:00,
2013-03-30 11:08:00,48.9,25.4,30.14,NNW,333,0.0,222.7,40,0.00,,,0.00,VWS V14.01,2013-03-30 15:08:00,
2013-03-30 11:13:00,48.9,22.9,30.14,WNW,297,0.0,222.7,36,0.00,,,0.00,VWS V14.01,2013-03-30 15:13:00,
2013-03-30 11:18:00,49.3,24.7,30.14,North,3,0.0,222.7,38,0.00,,,0.00,VWS V14.01,2013-03-30 15:18:00,
2013-03-30 11:24:00,49.3,23.3,30.14,NNW,338,0.0,222.7,36,0.00,,,0.00,VWS V14.01,2013-03-30 15:24:00,
2013-03-30 11:29:00,49.7,25.7,30.13,WNW,285,3.0,222.7,39,0.00,,,0.00,VWS V14.01,2013-03-30 15:29:00,
2013-03-30 11:35:00,50.3,23.0,30.13,WSW,253,0.0,222.7,34,0.00,,,0.00,VWS V14.01,2013-03-30 15:35:00,
2013-03-30 11:40:00,50.3,24.3,30.13,WNW,302,3.3,222.7,36,0.00,,,0.00,VWS V14.01,2013-03-30 15:40:00,
2013-03-30 11:46:00,50.2,23.1,30.13,NNW,330,0.0,222.7,34,0.00,,,0.00,VWS V14.01,2013-03-30 15:46:00,
2013-03-30 11:51:00,50.5,24.7,30.13,West,266,0.0,222.7,36,0.00,,,0.00,VWS V14.01,2013-03-30 15:51:00,
2013-03-30 11:57:00,51.2,26.1,30.13,ENE,66,0.0,222.7,37,0.00,,,0.00,VWS V14.01,2013-03-30 15:57:00,
2013-03-30 12:02:00,51.7,25.6,30.13,West,269,0.0,222.7,36,0.00,,,0.00,VWS V14.01,2013-03-30 16:02:00,
2013-03-30 12:07:00,51.8,25.4,30.13,NE,44,0.0,222.7,36,0.00,,,0.00,VWS V14.01,2013-03-30 16:07:00,
2013-03-30 12:13:00,52.2,24.7,30.13,WNW,292,6.3,222.7,34,0.00,,,0.00,VWS V14.01,2013-03-30 16:13:00,
2013-03-30 12:18:00,52.3,24.1,30.12,WNW,287,0.0,222.7,33,0.00,,,0.00,VWS V14.01,2013-03-30 16:18:00,
2013-03-30 12:24:00,51.4,22.8,30.12,NNW,335,11.7,222.7,32,0.00,,,0.00,VWS V14.01,2013-03-30 16:24:00,
2013-03-30 12:29:00,51.6,24.4,30.12,WNW,297,0.0,222.7,34,0.00,,,0.00,VWS V14.01,2013-03-30 16:29:00,
2013-03-30 12:34:00,52.4,24.1,30.12,NNW,330,0.0,222.7,33,0.00,,,0.00,VWS V14.01,2013-03-30 16:34:00,
2013-03-30 12:40:00,52.3,24.0,30.12,WNW,302,2.2,222.7,33,0.00,,,0.00,VWS V14.01,2013-03-30 16:40:00,
2013-03-30 12:45:00,52.9,24.6,30.12,NW,304,0.0,222.7,33,0.00,,,0.00,VWS V14.01,2013-03-30 16:45:00,
2013-03-30 12:50:00,53.0,24.7,30.11,WNW,298,0.0,222.7,33,0.00,,,0.00,VWS V14.01,2013-03-30 16:50:00,
2013-03-30 12:56:00,53.4,24.5,30.11,NNW,332,8.1,222.7,32,0.00,,,0.00,VWS V14.01,2013-03-30 16:56:00,
2013-03-30 13:01:00,53.2,24.6,30.11,West,280,0.0,222.7,33,0.00,,,0.00,VWS V14.01,2013-03-30 17:01:00,
2013-03-30 13:07:00,53.2,24.8,30.11,NW,309,0.0,222.7,33,0.00,,,0.00,VWS V14.01,2013-03-30 17:07:00,
2013-03-30 13:12:00,53.1,26.0,30.10,North,7,0.0,222.7,35,0.00,,,0.00,VWS V14.01,2013-03-30 17:12:00,
2013-03-30 13:17:00,52.8,25.8,30.10,North,4,0.0,222.7,35,0.00,,,0.00,VWS V14.01,2013-03-30 17:17:00,
2013-03-30 13:22:00,52.8,26.0,30.10,NNW,329,0.0,222.7,35,0.00,,,0.00,VWS V14.01,2013-03-30 17:22:00,
2013-03-30 13:28:00,52.2,25.5,30.10,NW,308,0.0,222.7,35,0.00,,,0.00,VWS V14.01,2013-03-30 17:28:00,
2013-03-30 13:33:00,52.1,25.9,30.10,West,278,0.0,222.7,36,0.00,,,0.00,VWS V14.01,2013-03-30 17:33:00,
2013-03-30 13:38:00,53.6,27.6,30.09,WSW,246,0.0,222.7,36,0.00,,,0.00,VWS V14.01,2013-03-30 17:38:00,
2013-03-30 13:43:00,54.1,25.6,30.09,West,259,0.0,222.7,33,0.00,,,0.00,VWS V14.01,2013-03-30 17:43:00,
2013-03-30 13:49:00,53.9,26.3,30.09,West,280,0.0,222.7,34,0.00,,,0.00,VWS V14.01,2013-03-30 17:49:00,
2013-03-30 13:54:00,54.5,26.7,30.08,WNW,302,0.0,222.7,34,0.00,,,0.00,VWS V14.01,2013-03-30 17:54:00,
2013-03-30 13:59:00,54.6,25.6,30.08,WSW,243,0.0,222.7,32,0.00,,,0.00,VWS V14.01,2013-03-30 17:59:00,
2013-03-30 14:05:00,54.4,26.1,30.08,ENE,75,0.0,222.7,33,0.00,,,0.00,VWS V14.01,2013-03-30 18:05:00,
2013-03-30 14:10:00,54.2,26.1,30.08,West,271,2.7,222.7,34,0.00,,,0.00,VWS V14.01,2013-03-30 18:10:00,
2013-03-30 14:15:00,54.1,26.0,30.08,West,271,0.0,222.7,34,0.00,,,0.00,VWS V14.01,2013-03-30 18:15:00,
2013-03-30 14:21:00,54.0,26.3,30.08,North,3,0.0,222.7,34,0.00,,,0.00,VWS V14.01,2013-03-30 18:21:00,
2013-03-30 14:26:00,54.3,25.8,30.08,North,3,0.0,222.7,33,0.00,,,0.00,VWS V14.01,2013-03-30 18:26:00,
2013-03-30 14:31:00,53.8,26.0,30.08,NNW,340,0.0,222.7,34,0.00,,,0.00,VWS V14.01,2013-03-30 18:31:00,
2013-03-30 14:36:00,53.5,25.9,30.08,NNW,340,0.0,222.7,34,0.00,,,0.00,VWS V14.01,2013-03-30 18:36:00,
2013-03-30 14:41:00,53.7,26.4,30.08,NW,312,0.0,222.7,34,0.00,,,0.00,VWS V14.01,2013-03-30 18:41:00,
2013-03-30 14:47:00,53.9,26.0,30.07,WNW,291,0.0,222.7,34,0.00,,,0.00,VWS V14.01,2013-03-30 18:47:00,
2013-03-30 14:52:00,54.5,26.1,30.07,WNW,291,0.0,222.7,33,0.00,,,0.00,VWS V14.01,2013-03-30 18:52:00,
2013-03-30 14:57:00,54.6,25.4,30.07,WNW,291,0.0,222.7,32,0.00,,,0.00,VWS V14.01,2013-03-30 18:57:00,
2013-03-30 15:02:00,54.2,25.1,30.07,WNW,292,0.0,222.7,32,0.00,,,0.00,VWS V14.01,2013-03-30 19:02:00,
2013-03-30 15:08:00,53.7,24.7,30.07,WNW,292,0.0,222.7,32,0.00,,,0.00,VWS V14.01,2013-03-30 19:08:00,
2013-03-30 15:13:00,53.3,25.2,30.07,NNW,339,0.0,222.7,33,0.00,,,0.00,VWS V14.01,2013-03-30 19:13:00,
2013-03-30 15:18:00,53.2,24.9,30.07,NW,319,0.0,222.7,33,0.00,,,0.00,VWS V14.01,2013-03-30 19:18:00,
2013-03-30 15:23:00,53.5,23.4,30.07,NNW,332,0.0,222.7,31,0.00,,,0.00,VWS V14.01,2013-03-30 19:23:00,
2013-03-30 15:28:00,53.8,23.8,30.07,NNW,332,0.0,222.7,31,0.00,,,0.00,VWS V14.01,2013-03-30 19:28:00,
2013-03-30 15:34:00,53.8,22.4,30.07,NNW,332,5.3,222.7,29,0.00,,,0.00,VWS V14.01,2013-03-30 19:34:00,
2013-03-30 15:39:00,53.8,23.0,30.06,North,356,0.0,222.7,30,0.00,,,0.00,VWS V14.01,2013-03-30 19:39:00,
2013-03-30 15:44:00,54.3,22.9,30.06,North,356,0.0,222.7,29,0.00,,,0.00,VWS V14.01,2013-03-30 19:44:00,
2013-03-30 15:49:00,54.4,21.8,30.06,NNE,18,0.0,222.7,28,0.00,,,0.00,VWS V14.01,2013-03-30 19:49:00,
2013-03-30 15:55:00,54.1,21.9,30.06,NW,322,0.0,222.7,28,0.00,,,0.00,VWS V14.01,2013-03-30 19:55:00,
2013-03-30 16:00:00,54.1,22.8,30.06,NW,308,0.0,222.7,29,0.00,,,0.00,VWS V14.01,2013-03-30 20:00:00,
2013-03-30 16:05:00,54.2,22.3,30.06,NW,312,0.0,222.7,29,0.00,,,0.00,VWS V14.01,2013-03-30 20:05:00,
2013-03-30 16:10:00,54.2,21.0,30.06,NNE,14,0.0,222.7,27,0.00,,,0.00,VWS V14.01,2013-03-30 20:10:00,
2013-03-30 16:16:00,54.4,20.5,30.06,NNW,345,7.4,222.7,26,0.00,,,0.00,VWS V14.01,2013-03-30 20:16:00,
2013-03-30 16:21:00,54.3,21.4,30.06,North,4,0.0,222.7,27,0.00,,,0.00,VWS V14.01,2013-03-30 20:21:00,
2013-03-30 16:27:00,54.9,21.0,30.06,North,4,0.0,222.7,26,0.00,,,0.00,VWS V14.01,2013-03-30 20:27:00,
2013-03-30 16:32:00,55.5,20.5,30.06,NW,308,5.5,222.7,25,0.00,,,0.00,VWS V14.01,2013-03-30 20:32:00,
2013-03-30 16:37:00,55.8,19.7,30.06,WNW,295,0.0,222.7,24,0.00,,,0.00,VWS V14.01,2013-03-30 20:37:00,
2013-03-30 16:43:00,56.2,21.5,30.06,NNW,336,0.0,222.7,26,0.00,,,0.00,VWS V14.01,2013-03-30 20:43:00,
2013-03-30 16:48:00,57.0,21.0,30.06,NNW,345,4.2,222.7,24,0.00,,,0.00,VWS V14.01,2013-03-30 20:48:00,
2013-03-30 16:53:00,57.4,21.9,30.06,NNW,345,0.0,222.7,25,0.00,,,0.00,VWS V14.01,2013-03-30 20:53:00,
2013-03-30 16:58:00,57.1,20.7,30.06,North,3,0.0,222.7,24,0.00,,,0.00,VWS V14.01,2013-03-30 20:58:00,
2013-03-30 17:04:00,57.5,22.4,30.06,North,3,0.0,222.7,26,0.00,,,0.00,VWS V14.01,2013-03-30 21:04:00,
2013-03-30 17:09:00,57.6,20.8,30.06,North,4,8.0,222.7,24,0.00,,,0.00,VWS V14.01,2013-03-30 21:09:00,
2013-03-30 17:14:00,57.3,20.5,30.06,NNE,21,0.0,222.7,24,0.00,,,0.00,VWS V14.01,2013-03-30 21:14:00,
2013-03-30 17:19:00,57.9,21.5,30.06,WNW,284,9.6,222.7,24,0.00,,,0.00,VWS V14.01,2013-03-30 21:19:00,
2013-03-30 17:25:00,57.8,20.7,30.06,WSW,246,3.2,222.7,23,0.00,,,0.00,VWS V14.01,2013-03-30 21:25:00,
2013-03-30 17:30:00,57.1,20.6,30.06,WSW,256,8.9,222.7,24,0.00,,,0.00,VWS V14.01,2013-03-30 21:30:00,
2013-03-30 17:35:00,56.7,21.8,30.06,West,278,6.3,222.7,26,0.00,,,0.00,VWS V14.01,2013-03-30 21:35:00,
2013-03-30 17:41:00,57.0,21.1,30.06,WSW,257,0.0,222.7,24,0.00,,,0.00,VWS V14.01,2013-03-30 21:41:00,
2013-03-30 17:46:00,55.9,21.1,30.06,West,273,6.7,222.7,26,0.00,,,0.00,VWS V14.01,2013-03-30 21:46:00,
2013-03-30 17:51:00,55.1,21.6,30.06,WNW,285,4.6,222.7,27,0.00,,,0.00,VWS V14.01,2013-03-30 21:51:00,
2013-03-30 17:57:00,54.6,20.4,30.06,WSW,252,0.0,222.7,26,0.00,,,0.00,VWS V14.01,2013-03-30 21:57:00,
2013-03-30 18:02:00,54.7,21.9,30.07,WNW,294,0.0,222.7,28,0.00,,,0.00,VWS V14.01,2013-03-30 22:02:00,
2013-03-30 18:08:00,54.4,20.4,30.07,West,262,0.0,222.7,26,0.00,,,0.00,VWS V14.01,2013-03-30 22:08:00,
2013-03-30 18:14:00,54.8,20.6,30.06,WNW,287,0.0,222.7,26,0.00,,,0.00,VWS V14.01,2013-03-30 22:14:00,
2013-03-30 18:19:00,55.2,21.0,30.07,WNW,295,0.0,222.7,26,0.00,,,0.00,VWS V14.01,2013-03-30 22:19:00,
2013-03-30 18:25:00,55.7,21.7,30.07,WNW,283,0.0,222.7,26,0.00,,,0.00,VWS V14.01,2013-03-30 22:25:00,
2013-03-30 18:30:00,55.9,21.4,30.07,WSW,253,0.0,222.7,26,0.00,,,0.00,VWS V14.01,2013-03-30 22:30:00,
2013-03-30 18:36:00,55.6,19.8,30.07,West,266,0.0,222.7,24,0.00,,,0.00,VWS V14.01,2013-03-30 22:36:00,
2013-03-30 18:42:00,55.5,20.2,30.07,West,277,7.3,222.7,25,0.00,,,0.00,VWS V14.01,2013-03-30 22:42:00,
2013-03-30 18:48:00,55.4,20.9,30.07,WNW,298,0.0,222.7,26,0.00,,,0.00,VWS V14.01,2013-03-30 22:48:00,
2013-03-30 18:57:00,54.7,20.8,30.07,WNW,298,0.0,222.7,26,0.00,,,0.00,VWS V14.01,2013-03-30 22:57:00,
2013-03-30 19:03:00,54.0,20.4,30.08,WNW,298,0.0,222.7,27,0.00,,,0.00,VWS V14.01,2013-03-30 23:03:00,
2013-03-30 19:08:00,53.4,20.5,30.08,WNW,298,0.0,222.7,27,0.00,,,0.00,VWS V14.01,2013-03-30 23:08:00,
2013-03-30 19:14:00,52.9,20.3,30.08,WNW,298,0.0,222.7,28,0.00,,,0.00,VWS V14.01,2013-03-30 23:14:00,
2013-03-30 19:19:00,52.3,20.4,30.08,WNW,298,0.0,222.7,28,0.00,,,0.00,VWS V14.01,2013-03-30 23:19:00,
2013-03-30 19:25:00,52.0,20.5,30.08,WNW,298,0.0,222.7,29,0.00,,,0.00,VWS V14.01,2013-03-30 23:25:00,
2013-03-30 19:31:00,51.7,20.6,30.08,WNW,298,0.0,222.7,29,0.00,,,0.00,VWS V14.01,2013-03-30 23:31:00,
2013-03-30 19:36:00,51.2,20.5,30.08,WNW,298,0.0,222.7,30,0.00,,,0.00,VWS V14.01,2013-03-30 23:36:00,
2013-03-30 19:42:00,51.1,20.7,30.08,WNW,298,0.0,222.7,30,0.00,,,0.00,VWS V14.01,2013-03-30 23:42:00,
2013-03-30 19:47:00,50.9,21.0,30.09,WNW,298,0.0,222.7,30,0.00,,,0.00,VWS V14.01,2013-03-30 23:47:00,
2013-03-30 19:53:00,50.6,21.0,30.09,WNW,298,0.0,222.7,31,0.00,,,0.00,VWS V14.01,2013-03-30 23:53:00,
2013-03-30 19:58:00,50.3,21.1,30.09,WNW,298,0.0,222.7,31,0.00,,,0.00,VWS V14.01,2013-03-30 23:58:00,
2013-03-30 20:04:00,50.1,21.5,30.09,WNW,298,0.0,222.7,32,0.00,,,0.00,VWS V14.01,2013-03-31 00:04:00,
2013-03-30 20:11:00,49.8,21.5,30.09,WNW,298,0.0,222.7,32,0.00,,,0.00,VWS V14.01,2013-03-31 00:11:00,
2013-03-30 20:17:00,49.5,21.9,30.09,WNW,298,0.0,222.7,33,0.00,,,0.00,VWS V14.01,2013-03-31 00:17:00,
2013-03-30 20:22:00,49.1,21.6,30.09,WNW,298,0.0,222.7,34,0.00,,,0.00,VWS V14.01,2013-03-31 00:22:00,
2013-03-30 20:28:00,48.6,21.5,30.10,WNW,298,0.0,222.7,34,0.00,,,0.00,VWS V14.01,2013-03-31 00:28:00,
2013-03-30 20:33:00,48.2,21.7,30.10,WNW,298,0.0,222.7,35,0.00,,,0.00,VWS V14.01,2013-03-31 00:33:00,
2013-03-30 20:39:00,47.8,21.7,30.10,WNW,298,0.0,222.7,35,0.00,,,0.00,VWS V14.01,2013-03-31 00:39:00,
2013-03-30 20:44:00,47.5,21.6,30.10,WNW,298,0.0,222.7,36,0.00,,,0.00,VWS V14.01,2013-03-31 00:44:00,
2013-03-30 20:50:00,47.4,21.7,30.10,WNW,298,0.0,222.7,36,0.00,,,0.00,VWS V14.01,2013-03-31 00:50:00,
2013-03-30 20:55:00,47.1,21.7,30.10,WNW,298,0.0,222.7,36,0.00,,,0.00,VWS V14.01,2013-03-31 00:55:00,
2013-03-30 21:01:00,46.8,21.7,30.10,WNW,298,0.0,222.7,37,0.00,,,0.00,VWS V14.01,2013-03-31 01:01:00,
2013-03-30 21:07:00,46.6,22.7,30.11,WNW,298,0.0,222.7,39,0.00,,,0.00,VWS V14.01,2013-03-31 01:07:00,
2013-03-30 21:14:00,46.3,21.8,30.11,WNW,298,0.0,222.7,38,0.00,,,0.00,VWS V14.01,2013-03-31 01:14:00,
2013-03-30 21:19:00,46.2,21.6,30.11,WNW,298,0.0,222.7,37,0.00,,,0.00,VWS V14.01,2013-03-31 01:19:00,
2013-03-30 21:25:00,46.1,22.0,30.11,WNW,298,0.0,222.7,38,0.00,,,0.00,VWS V14.01,2013-03-31 01:25:00,
2013-03-30 21:31:00,45.9,21.7,30.11,WNW,298,0.0,222.7,38,0.00,,,0.00,VWS V14.01,2013-03-31 01:31:00,
2013-03-30 21:36:00,45.9,21.6,30.11,WNW,298,0.0,222.7,38,0.00,,,0.00,VWS V14.01,2013-03-31 01:36:00,
2013-03-30 21:42:00,46.0,21.5,30.11,WNW,298,0.0,222.7,38,0.00,,,0.00,VWS V14.01,2013-03-31 01:42:00,
2013-03-30 21:48:00,46.0,21.6,30.11,WNW,298,0.0,222.7,38,0.00,,,0.00,VWS V14.01,2013-03-31 01:48:00,
2013-03-30 21:54:00,45.9,23.1,30.12,WNW,298,0.0,222.7,40,0.00,,,0.00,VWS V14.01,2013-03-31 01:54:00,
2013-03-30 21:59:00,45.5,23.4,30.12,WNW,298,0.0,222.7,41,0.00,,,0.00,VWS V14.01,2013-03-31 01:59:00,
2013-03-30 22:05:00,45.3,23.0,30.11,WNW,298,0.0,222.7,41,0.00,,,0.00,VWS V14.01,2013-03-31 02:05:00,
2013-03-30 22:10:00,45.2,22.9,30.11,WNW,298,0.0,222.7,41,0.00,,,0.00,VWS V14.01,2013-03-31 02:10:00,
2013-03-30 22:16:00,44.9,22.9,30.12,WNW,298,0.0,222.7,42,0.00,,,0.00,VWS V14.01,2013-03-31 02:16:00,
2013-03-30 22:22:00,44.7,22.9,30.12,WNW,298,0.0,222.7,42,0.00,,,0.00,VWS V14.01,2013-03-31 02:22:00,
2013-03-30 22:28:00,44.6,23.0,30.12,WNW,298,0.0,222.7,42,0.00,,,0.00,VWS V14.01,2013-03-31 02:28:00,
2013-03-30 22:33:00,44.5,23.0,30.12,WNW,298,0.0,222.7,42,0.00,,,0.00,VWS V14.01,2013-03-31 02:33:00,
2013-03-30 22:39:00,44.4,22.8,30.12,WNW,298,0.0,222.7,42,0.00,,,0.00,VWS V14.01,2013-03-31 02:39:00,
2013-03-30 22:44:00,44.4,22.7,30.12,WNW,298,0.0,222.7,42,0.00,,,0.00,VWS V14.01,2013-03-31 02:44:00,
2013-03-30 22:50:00,44.3,22.4,30.12,WNW,298,0.0,222.7,42,0.00,,,0.00,VWS V14.01,2013-03-31 02:50:00,
2013-03-30 22:56:00,44.2,22.3,30.12,WNW,298,0.0,222.7,42,0.00,,,0.00,VWS V14.01,2013-03-31 02:56:00,
2013-03-30 23:01:00,44.1,22.5,30.12,WNW,298,0.0,222.7,42,0.00,,,0.00,VWS V14.01,2013-03-31 03:01:00,
2013-03-30 23:07:00,44.2,22.5,30.12,WNW,298,0.0,222.7,42,0.00,,,0.00,VWS V14.01,2013-03-31 03:07:00,
2013-03-30 23:12:00,44.2,22.5,30.12,WNW,298,0.0,222.7,42,0.00,,,0.00,VWS V14.01,2013-03-31 03:12:00,
2013-03-30 23:18:00,44.1,22.3,30.12,WNW,298,0.0,222.7,42,0.00,,,0.00,VWS V14.01,2013-03-31 03:18:00,
2013-03-30 23:24:00,44.0,22.2,30.12,WNW,298,0.0,222.7,42,0.00,,,0.00,VWS V14.01,2013-03-31 03:24:00,
2013-03-30 23:29:00,43.9,22.4,30.12,WNW,298,0.0,222.7,42,0.00,,,0.00,VWS V14.01,2013-03-31 03:29:00,
2013-03-30 23:35:00,43.5,22.9,30.13,WNW,298,0.0,222.7,44,0.00,,,0.00,VWS V14.01,2013-03-31 03:35:00,
2013-03-30 23:41:00,43.1,22.8,30.13,WNW,298,0.0,222.7,44,0.00,,,0.00,VWS V14.01,2013-03-31 03:41:00,
2013-03-30 23:46:00,42.6,22.6,30.13,WNW,298,0.0,222.7,45,0.00,,,0.00,VWS V14.01,2013-03-31 03:46:00,
2013-03-30 23:52:00,42.2,22.8,30.13,WNW,298,0.0,222.7,46,0.00,,,0.00,VWS V14.01,2013-03-31 03:52:00,
2013-03-30 23:58:00,41.9,22.4,30.13,WNW,298,0.0,222.7,46,0.00,,,0.00,VWS V14.01,2013-03-31 03:58:00,